createdAt,value
2023-08-15T00:00:22.929Z,98156.52
2023-08-15T00:03:12.272Z,98156.34
2023-08-15T00:05:41.389Z,98153.85
2023-08-15T00:08:09.505Z,98158.86
2023-08-15T00:10:37.513Z,98164.65
2023-08-15T00:13:05.692Z,98169.86
2023-08-15T00:15:33.807Z,98171.52
2023-08-15T00:18:02.472Z,98168.37
2023-08-15T00:20:31.128Z,98166.06
2023-08-15T00:22:59.516Z,98167.48
2023-08-15T00:25:27.632Z,98168.78
2023-08-15T00:27:55.710Z,98169.52
2023-08-15T00:30:23.708Z,98170.67
2023-08-15T00:32:51.819Z,98171.81
2023-08-15T00:35:19.959Z,98172.92
2023-08-15T00:37:48.054Z,98174.33
2023-08-15T00:40:16.346Z,98172.02
2023-08-15T00:42:44.528Z,98171.77
2023-08-15T00:45:12.684Z,98170.51
2023-08-15T00:47:41.064Z,98171.29
2023-08-15T00:50:11.010Z,98170.66
2023-08-15T00:52:40.647Z,98171.98
2023-08-15T00:55:11.230Z,98168.58
2023-08-15T00:57:39.497Z,98164.63
2023-08-15T01:00:09.233Z,98161.95
2023-08-15T01:02:37.830Z,98163.34
2023-08-15T01:05:09.049Z,98157.83
2023-08-15T01:07:38.265Z,98160.64
2023-08-15T01:10:07.165Z,98160.20
2023-08-15T01:13:03.521Z,98165.20
2023-08-15T01:15:35.146Z,98165.02
2023-08-15T01:18:11.844Z,98166.97
2023-08-15T01:20:40.680Z,98171.59
2023-08-15T01:23:11.954Z,98167.09
2023-08-15T01:25:42.439Z,98167.97
2023-08-15T01:28:14.238Z,98169.55
2023-08-15T01:30:51.000Z,98171.67
2023-08-15T01:33:40.005Z,98168.95
2023-08-15T01:36:20.240Z,98174.13
2023-08-15T01:38:55.470Z,98177.65
2023-08-15T01:41:26.263Z,98177.86
2023-08-15T01:43:55.676Z,98184.48
2023-08-15T01:46:24.997Z,98182.11
2023-08-15T01:48:53.213Z,98184.05
2023-08-15T01:51:21.854Z,98180.62
2023-08-15T01:53:50.504Z,98183.06
2023-08-15T01:56:18.752Z,98184.14
2023-08-15T01:58:47.583Z,98181.85
2023-08-15T02:01:15.651Z,98176.95
2023-08-15T02:03:44.040Z,98176.90
2023-08-15T02:06:12.562Z,98174.52
2023-08-15T02:08:41.894Z,98171.21
2023-08-15T02:11:09.929Z,98171.56
2023-08-15T02:13:38.068Z,98169.39
2023-08-15T02:16:06.333Z,98170.07
2023-08-15T02:18:34.438Z,98166.08
2023-08-15T02:21:02.497Z,98172.63
2023-08-15T02:23:30.477Z,98171.10
2023-08-15T02:25:58.462Z,98176.34
2023-08-15T02:28:28.677Z,98182.02
2023-08-15T02:30:56.739Z,98181.48
2023-08-15T02:33:26.824Z,98180.40
2023-08-15T02:35:55.125Z,98178.69
2023-08-15T02:38:25.372Z,98175.52
2023-08-15T02:40:53.490Z,98174.27
2023-08-15T02:43:21.649Z,98174.92
2023-08-15T02:45:49.665Z,98171.98
2023-08-15T02:48:20.456Z,98168.48
2023-08-15T02:50:48.522Z,98170.77
2023-08-15T02:53:16.909Z,98169.93
2023-08-15T02:55:44.952Z,98170.33
2023-08-15T02:58:13.027Z,98169.05
2023-08-15T03:00:41.307Z,98169.73
2023-08-15T03:03:09.632Z,98173.24
2023-08-15T03:05:39.023Z,98174.66
2023-08-15T03:08:07.092Z,98173.52
2023-08-15T03:10:37.693Z,98174.16
2023-08-15T03:13:05.992Z,98174.34
2023-08-15T03:15:35.532Z,98169.59
2023-08-15T03:18:04.568Z,98170.42
2023-08-15T03:20:33.430Z,98173.14
2023-08-15T03:23:01.884Z,98174.39
2023-08-15T03:25:32.256Z,98176.71
2023-08-15T03:28:01.546Z,98172.17
2023-08-15T03:30:32.375Z,98175.34
2023-08-15T03:33:01.199Z,98182.51
2023-08-15T03:35:29.322Z,98178.77
2023-08-15T03:37:57.432Z,98178.58
2023-08-15T03:40:27.716Z,98181.35
2023-08-15T03:42:56.416Z,98180.27
2023-08-15T03:45:24.983Z,98184.48
2023-08-15T03:47:54.306Z,98188.04
2023-08-15T03:50:22.341Z,98191.76
2023-08-15T03:52:52.656Z,98196.26
2023-08-15T03:55:22.988Z,98191.88
2023-08-15T03:57:51.091Z,98187.03
2023-08-15T04:00:22.718Z,98189.05
2023-08-15T04:02:51.079Z,98194.39
2023-08-15T04:05:19.822Z,98200.17
2023-08-15T04:07:47.982Z,98199.01
2023-08-15T04:10:16.365Z,98193.95
2023-08-15T04:12:45.806Z,98195.46
2023-08-15T04:15:13.996Z,98197.82
2023-08-15T04:17:43.486Z,98200.85
2023-08-15T04:20:13.905Z,98196.71
2023-08-15T04:22:43.238Z,98197.88
2023-08-15T04:25:11.447Z,98197.22
2023-08-15T04:27:39.703Z,98198.84
2023-08-15T04:30:09.790Z,98199.45
2023-08-15T04:32:37.905Z,98200.64
2023-08-15T04:35:07.479Z,98205.10
2023-08-15T04:37:36.472Z,98207.92
2023-08-15T04:40:04.865Z,98208.34
2023-08-15T04:42:32.981Z,98207.77
2023-08-15T04:45:02.969Z,98210.11
2023-08-15T04:47:31.193Z,98209.45
2023-08-15T04:49:59.297Z,98213.25
2023-08-15T04:52:28.085Z,98215.23
2023-08-15T04:54:56.262Z,98213.84
2023-08-15T04:57:24.375Z,98214.74
2023-08-15T04:59:52.543Z,98212.92
2023-08-15T05:02:20.683Z,98215.06
2023-08-15T05:04:50.812Z,98212.26
2023-08-15T05:07:19.262Z,98210.96
2023-08-15T05:09:48.752Z,98211.20
2023-08-15T05:12:19.730Z,98212.22
2023-08-15T05:14:47.727Z,98210.71
2023-08-15T05:17:15.860Z,98203.90
2023-08-15T05:19:44.613Z,98202.85
2023-08-15T05:22:12.829Z,98204.38
2023-08-15T05:24:40.938Z,98201.95
2023-08-15T05:27:12.905Z,98199.58
2023-08-15T05:29:43.003Z,98193.46
2023-08-15T05:32:11.435Z,98186.95
2023-08-15T05:34:39.809Z,98187.05
2023-08-15T05:37:08.037Z,98184.84
2023-08-15T05:39:36.381Z,98185.59
2023-08-15T05:42:04.902Z,98185.84
2023-08-15T05:44:33.067Z,98190.42
2023-08-15T05:47:01.314Z,98186.41
2023-08-15T05:49:29.380Z,98189.35
2023-08-15T05:51:57.967Z,98185.91
2023-08-15T05:54:26.070Z,98185.89
2023-08-15T05:56:54.870Z,98183.05
2023-08-15T05:59:23.218Z,98183.71
2023-08-15T06:01:51.470Z,98190.15
2023-08-15T06:04:21.206Z,98189.11
2023-08-15T06:06:49.346Z,98187.52
2023-08-15T06:09:18.786Z,98190.20
2023-08-15T06:11:47.256Z,98190.66
2023-08-15T06:14:15.637Z,98191.63
2023-08-15T06:16:43.989Z,98189.73
2023-08-15T06:19:13.243Z,98187.34
2023-08-15T06:21:42.912Z,98185.11
2023-08-15T06:24:13.698Z,98188.92
2023-08-15T06:26:43.949Z,98184.26
2023-08-15T06:29:12.151Z,98185.08
2023-08-15T06:31:40.444Z,98182.39
2023-08-15T06:34:08.964Z,98180.86
2023-08-15T06:36:36.983Z,98176.40
2023-08-15T06:39:05.192Z,98177.48
2023-08-15T06:41:34.917Z,98173.42
2023-08-15T06:44:03.882Z,98175.48
2023-08-15T06:46:32.163Z,98177.50
2023-08-15T06:49:02.849Z,98180.40
2023-08-15T06:51:31.037Z,98177.35
2023-08-15T06:54:00.427Z,98175.79
2023-08-15T06:56:28.814Z,98169.19
2023-08-15T06:58:57.327Z,98174.86
2023-08-15T07:01:28.253Z,98177.98
2023-08-15T07:03:57.707Z,98173.09
2023-08-15T07:06:26.559Z,98170.11
2023-08-15T07:08:57.044Z,98172.98
2023-08-15T07:11:25.475Z,98169.86
2023-08-15T07:13:53.627Z,98168.82
2023-08-15T07:16:24.559Z,98167.25
2023-08-15T07:18:53.923Z,98160.40
2023-08-15T07:21:24.672Z,98162.89
2023-08-15T07:23:52.710Z,98161.09
2023-08-15T07:26:20.873Z,98161.11
2023-08-15T07:28:48.984Z,98160.36
2023-08-15T07:31:17.098Z,98161.41
2023-08-15T07:33:46.697Z,98161.91
2023-08-15T07:36:15.336Z,98167.14
2023-08-15T07:38:45.400Z,98166.48
2023-08-15T07:41:13.351Z,98167.96
2023-08-15T07:43:42.814Z,98173.11
2023-08-15T07:46:12.555Z,98169.58
2023-08-15T07:48:41.200Z,98164.40
2023-08-15T07:51:09.578Z,98163.12
2023-08-15T07:53:37.864Z,98160.77
2023-08-15T07:56:07.009Z,98159.63
2023-08-15T07:58:36.600Z,98152.47
2023-08-15T08:01:05.345Z,98148.14
2023-08-15T08:03:33.640Z,98147.38
2023-08-15T08:06:03.922Z,98145.38
2023-08-15T08:08:36.417Z,98144.59
2023-08-15T08:11:04.595Z,98143.66
2023-08-15T08:13:32.678Z,98146.55
2023-08-15T08:16:01.442Z,98152.44
2023-08-15T08:18:30.260Z,98152.42
2023-08-15T08:20:58.728Z,98149.64
2023-08-15T08:23:26.908Z,98144.38
2023-08-15T08:25:54.923Z,98149.10
2023-08-15T08:28:26.930Z,98159.16
2023-08-15T08:30:55.074Z,98156.48
2023-08-15T08:33:23.141Z,98152.25
2023-08-15T08:35:52.011Z,98152.56
2023-08-15T08:38:20.852Z,98152.87
2023-08-15T08:40:49.579Z,98151.81
2023-08-15T08:43:19.900Z,98154.31
2023-08-15T08:45:55.707Z,98151.21
2023-08-15T08:48:24.601Z,98148.27
2023-08-15T08:50:54.329Z,98149.94
2023-08-15T08:53:22.444Z,98144.11
2023-08-15T08:55:53.833Z,98139.91
2023-08-15T08:58:25.809Z,98135.73
2023-08-15T09:00:55.067Z,98128.03
2023-08-15T09:03:23.301Z,98120.52
2023-08-15T09:05:51.716Z,98106.39
2023-08-15T09:08:20.256Z,98098.49
2023-08-15T09:10:48.529Z,98094.63
2023-08-15T09:13:24.165Z,98092.66
2023-08-15T09:15:57.024Z,98095.34
2023-08-15T09:18:28.192Z,98096.48
2023-08-15T09:20:57.898Z,98098.61
2023-08-15T09:23:26.694Z,98094.27
2023-08-15T09:25:57.270Z,98097.85
2023-08-15T09:28:25.545Z,98092.28
2023-08-15T09:30:54.637Z,98093.33
2023-08-15T09:33:30.132Z,98095.36
2023-08-15T09:35:59.467Z,98094.41
2023-08-15T09:38:29.031Z,98088.84
2023-08-15T09:40:58.498Z,98086.15
2023-08-15T09:43:27.685Z,98080.77
2023-08-15T09:45:59.287Z,98080.77
2023-08-15T09:48:31.543Z,98080.95
2023-08-15T09:51:03.464Z,98073.31
2023-08-15T09:53:34.042Z,98060.23
2023-08-15T09:56:02.121Z,98055.35
2023-08-15T09:58:30.185Z,98051.35
2023-08-15T10:00:59.581Z,98045.67
2023-08-15T10:03:28.528Z,98038.44
2023-08-15T10:05:59.222Z,98029.67
2023-08-15T10:08:28.687Z,98021.94
2023-08-15T10:10:59.936Z,98029.37
2023-08-15T10:13:48.451Z,98039.52
2023-08-15T10:16:16.991Z,98047.95
2023-08-15T10:18:55.821Z,98058.95
2023-08-15T10:21:30.315Z,98066.32
2023-08-15T10:24:08.472Z,98073.33
2023-08-15T10:26:41.358Z,98077.89
2023-08-15T10:29:10.676Z,98084.45
2023-08-15T10:31:41.546Z,98088.30
2023-08-15T10:34:20.196Z,98089.45
2023-08-15T10:37:11.050Z,98093.79
2023-08-15T10:39:39.681Z,98094.94
2023-08-15T10:42:07.987Z,98091.46
2023-08-15T10:44:39.075Z,98093.89
2023-08-15T10:47:23.843Z,98098.48
2023-08-15T10:49:54.420Z,98102.24
2023-08-15T10:52:22.937Z,98104.13
2023-08-15T10:54:52.898Z,98107.55
2023-08-15T10:57:23.460Z,98104.48
2023-08-15T10:59:55.048Z,98106.73
2023-08-15T11:02:23.528Z,98097.30
2023-08-15T11:04:51.697Z,98088.60
2023-08-15T11:07:27.368Z,98088.47
2023-08-15T11:09:55.637Z,98077.88
2023-08-15T11:12:25.318Z,98072.70
2023-08-15T11:14:58.201Z,98068.86
2023-08-15T11:17:27.099Z,98073.98
2023-08-15T11:19:55.343Z,98085.92
2023-08-15T11:22:23.808Z,98095.21
2023-08-15T11:24:52.354Z,98095.48
2023-08-15T11:27:20.865Z,98095.60
2023-08-15T11:30:00.011Z,98100.08
2023-08-15T11:32:28.578Z,98105.94
2023-08-15T11:34:57.328Z,98106.38
2023-08-15T11:37:26.083Z,98104.83
2023-08-15T11:39:56.109Z,98107.73
2023-08-15T11:42:40.289Z,98109.46
2023-08-15T11:45:25.148Z,98108.06
2023-08-15T11:47:57.375Z,98102.92
2023-08-15T11:50:42.153Z,98096.33
2023-08-15T11:53:18.934Z,98090.63
2023-08-15T11:55:48.298Z,98090.14
2023-08-15T11:58:22.489Z,98092.97
2023-08-15T12:01:16.691Z,98098.33
2023-08-15T12:03:45.320Z,98098.15
2023-08-15T12:06:15.989Z,98087.82
2023-08-15T12:08:47.052Z,98083.60
2023-08-15T12:11:20.515Z,98078.84
2023-08-15T12:13:48.789Z,98071.27
2023-08-15T12:16:17.082Z,98065.70
2023-08-15T12:18:45.529Z,98057.06
2023-08-15T12:21:14.937Z,98051.30
2023-08-15T12:23:44.295Z,98043.58
2023-08-15T12:26:12.379Z,98046.15
2023-08-15T12:28:40.945Z,98047.95
2023-08-15T12:31:09.570Z,98052.56
2023-08-15T12:33:46.852Z,98056.59
2023-08-15T12:36:16.406Z,98060.92
2023-08-15T12:38:44.929Z,98066.46
2023-08-15T12:41:15.380Z,98058.11
2023-08-15T12:43:43.913Z,98055.91
2023-08-15T12:46:12.012Z,98059.86
2023-08-15T12:48:40.412Z,98060.08
2023-08-15T12:51:08.606Z,98068.93
2023-08-15T12:53:37.485Z,98072.88
2023-08-15T12:56:06.285Z,98059.81
2023-08-15T12:58:34.595Z,98037.25
2023-08-15T13:01:03.822Z,98010.78
2023-08-15T13:03:34.150Z,97987.47
2023-08-15T13:06:03.929Z,97982.02
2023-08-15T13:08:33.069Z,97997.58
2023-08-15T13:11:01.255Z,98015.84
2023-08-15T13:13:29.867Z,98028.16
2023-08-15T13:15:57.901Z,98033.15
2023-08-15T13:18:26.090Z,98040.33
2023-08-15T13:20:54.898Z,98040.11
2023-08-15T13:23:23.654Z,98043.75
2023-08-15T13:25:51.798Z,98039.32
2023-08-15T13:28:20.717Z,98032.59
2023-08-15T13:30:49.036Z,98028.69
2023-08-15T13:33:18.235Z,98035.44
2023-08-15T13:35:46.817Z,98036.82
2023-08-15T13:38:17.196Z,98037.12
2023-08-15T13:40:46.440Z,98041.57
2023-08-15T13:43:16.059Z,98046.46
2023-08-15T13:45:45.413Z,98049.83
2023-08-15T13:48:13.534Z,98052.88
2023-08-15T13:50:41.767Z,98051.64
2023-08-15T13:53:12.664Z,98046.03
2023-08-15T13:55:40.715Z,98041.94
2023-08-15T13:58:10.760Z,98043.38
2023-08-15T14:00:40.314Z,98047.76
2023-08-15T14:03:09.134Z,98043.42
2023-08-15T14:05:37.745Z,98045.32
2023-08-15T14:08:07.739Z,98050.20
2023-08-15T14:10:36.570Z,98044.46
2023-08-15T14:13:05.231Z,98042.27
2023-08-15T14:15:34.734Z,98036.63
2023-08-15T14:18:03.305Z,98033.38
2023-08-15T14:20:34.762Z,98032.23
2023-08-15T14:23:05.303Z,98027.09
2023-08-15T14:25:33.814Z,98028.19
2023-08-15T14:28:03.109Z,98026.45
2023-08-15T14:30:32.374Z,98022.00
2023-08-15T14:33:00.506Z,98019.20
2023-08-15T14:35:28.785Z,98014.76
2023-08-15T14:37:56.944Z,98019.70
2023-08-15T14:40:25.540Z,98021.17
2023-08-15T14:42:54.086Z,98026.18
2023-08-15T14:45:23.294Z,98022.66
2023-08-15T14:47:52.026Z,98028.88
2023-08-15T14:50:20.162Z,98021.77
2023-08-15T14:52:48.279Z,98020.34
2023-08-15T14:55:18.668Z,98017.80
2023-08-15T14:57:46.768Z,98020.63
2023-08-15T15:00:15.788Z,98024.05
2023-08-15T15:02:44.225Z,98022.45
2023-08-15T15:05:12.717Z,98018.54
2023-08-15T15:07:40.846Z,98017.55
2023-08-15T15:10:09.362Z,98010.20
2023-08-15T15:12:38.288Z,98007.91
2023-08-15T15:15:07.441Z,98007.98
2023-08-15T15:17:35.904Z,98007.81
2023-08-15T15:20:06.763Z,98008.19
2023-08-15T15:22:35.050Z,98007.05
2023-08-15T15:25:04.797Z,98001.35
2023-08-15T15:27:32.959Z,97998.50
2023-08-15T15:30:01.543Z,97992.88
2023-08-15T15:32:30.501Z,97993.27
2023-08-15T15:34:58.612Z,97991.63
2023-08-15T15:37:27.730Z,97989.64
2023-08-15T15:39:56.398Z,97986.81
2023-08-15T15:42:25.173Z,97980.98
2023-08-15T15:44:54.064Z,97973.84
2023-08-15T15:47:23.522Z,97973.14
2023-08-15T15:49:51.897Z,97975.65
2023-08-15T15:52:20.446Z,97977.59
2023-08-15T15:54:48.809Z,97974.48
2023-08-15T15:57:18.140Z,97970.11
2023-08-15T15:59:47.481Z,97963.43
2023-08-15T16:02:15.644Z,97959.48
2023-08-15T16:04:47.754Z,97957.01
2023-08-15T16:07:16.760Z,97960.45
2023-08-15T16:09:46.052Z,97974.77
2023-08-15T16:12:14.880Z,97972.95
2023-08-15T16:14:43.574Z,97963.91
2023-08-15T16:17:13.117Z,97964.23
2023-08-15T16:19:41.159Z,97976.04
2023-08-15T16:22:09.763Z,97978.24
2023-08-15T16:24:38.048Z,97980.48
2023-08-15T16:27:09.068Z,97983.21
2023-08-15T16:29:37.235Z,97977.92
2023-08-15T16:32:06.573Z,97975.79
2023-08-15T16:34:34.835Z,97976.41
2023-08-15T16:37:02.929Z,97973.61
2023-08-15T16:39:31.114Z,97974.95
2023-08-15T16:42:01.119Z,97977.30
2023-08-15T16:44:30.121Z,97981.60
2023-08-15T16:46:58.264Z,97986.23
2023-08-15T16:49:27.240Z,97981.54
2023-08-15T16:51:56.056Z,97980.64
2023-08-15T16:54:24.420Z,97982.98
2023-08-15T16:56:52.452Z,97991.47
2023-08-15T16:59:20.528Z,97994.95
2023-08-15T17:01:48.950Z,97996.42
2023-08-15T17:04:17.426Z,98003.45
2023-08-15T17:06:45.501Z,98004.28
2023-08-15T17:09:13.688Z,98000.92
2023-08-15T17:11:41.747Z,97994.61
2023-08-15T17:14:09.908Z,97992.98
2023-08-15T17:16:40.877Z,97990.17
2023-08-15T17:19:09.825Z,97993.95
2023-08-15T17:21:39.740Z,98008.89
2023-08-15T17:24:09.721Z,98015.84
2023-08-15T17:26:39.246Z,98010.27
2023-08-15T17:29:07.385Z,98004.14
2023-08-15T17:31:37.490Z,98010.58
2023-08-15T17:34:05.562Z,98015.48
2023-08-15T17:36:33.721Z,98015.83
2023-08-15T17:39:02.681Z,98023.54
2023-08-15T17:41:30.954Z,98019.02
2023-08-15T17:43:59.108Z,98021.52
2023-08-15T17:46:27.513Z,98013.94
2023-08-15T17:48:55.988Z,98016.11
2023-08-15T17:51:24.059Z,98021.94
2023-08-15T17:53:52.179Z,98024.05
2023-08-15T17:56:20.839Z,98019.98
2023-08-15T17:58:52.302Z,98010.58
2023-08-15T18:01:20.855Z,98006.86
2023-08-15T18:03:49.396Z,98009.11
2023-08-15T18:06:17.722Z,98012.62
2023-08-15T18:08:45.896Z,98019.19
2023-08-15T18:11:15.307Z,98022.65
2023-08-15T18:13:43.489Z,98021.46
2023-08-15T18:16:12.351Z,98025.56
2023-08-15T18:18:40.907Z,98033.88
2023-08-15T18:21:09.191Z,98032.83
2023-08-15T18:23:39.031Z,98035.29
2023-08-15T18:26:09.384Z,98036.55
2023-08-15T18:28:37.573Z,98039.56
2023-08-15T18:31:08.717Z,98044.88
2023-08-15T18:33:36.858Z,98052.88
2023-08-15T18:36:06.268Z,98052.90
2023-08-15T18:38:34.373Z,98054.05
2023-08-15T18:41:02.444Z,98053.88
2023-08-15T18:43:31.690Z,98055.07
2023-08-15T18:46:01.857Z,98058.77
2023-08-15T18:48:30.089Z,98059.81
2023-08-15T18:50:58.263Z,98056.36
2023-08-15T18:53:26.378Z,98051.36
2023-08-15T18:55:54.444Z,98054.23
2023-08-15T18:58:22.687Z,98058.64
2023-08-15T19:00:50.784Z,98061.02
2023-08-15T19:03:20.241Z,98058.00
2023-08-15T19:05:49.500Z,98062.48
2023-08-15T19:08:17.671Z,98065.19
2023-08-15T19:10:48.308Z,98062.22
2023-08-15T19:13:22.462Z,98061.51
2023-08-15T19:15:51.292Z,98066.20
2023-08-15T19:18:19.541Z,98076.88
2023-08-15T19:20:47.547Z,98081.08
2023-08-15T19:23:16.284Z,98077.89
2023-08-15T19:25:44.366Z,98077.06
2023-08-15T19:28:12.505Z,98079.28
2023-08-15T19:30:42.877Z,98083.96
2023-08-15T19:33:11.191Z,98086.60
2023-08-15T19:35:39.698Z,98080.02
2023-08-15T19:38:07.843Z,98077.54
2023-08-15T19:40:36.252Z,98080.27
2023-08-15T19:43:04.478Z,98074.83
2023-08-15T19:45:32.580Z,98067.60
2023-08-15T19:48:00.600Z,98064.46
2023-08-15T19:50:30.276Z,98071.61
2023-08-15T19:52:58.624Z,98079.88
2023-08-15T19:55:31.542Z,98084.81
2023-08-15T19:58:00.733Z,98083.41
2023-08-15T20:00:28.883Z,98081.13
2023-08-15T20:02:57.190Z,98078.91
2023-08-15T20:05:25.510Z,98077.38
2023-08-15T20:07:53.603Z,98067.88
2023-08-15T20:10:21.725Z,98083.30
2023-08-15T20:12:49.832Z,98092.79
2023-08-15T20:15:17.957Z,98092.20
2023-08-15T20:17:48.316Z,98079.95
2023-08-15T20:20:16.599Z,98080.26
2023-08-15T20:22:45.251Z,98078.84
2023-08-15T20:25:14.627Z,98077.89
2023-08-15T20:27:43.389Z,98076.79
2023-08-15T20:30:12.309Z,98077.73
2023-08-15T20:32:40.716Z,98078.84
2023-08-15T20:35:11.414Z,98078.25
2023-08-15T20:37:39.581Z,98084.61
2023-08-15T20:40:12.871Z,98075.75
2023-08-15T20:42:41.982Z,98072.51
2023-08-15T20:45:15.121Z,98071.92
2023-08-15T20:47:43.712Z,98074.72
2023-08-15T20:50:11.999Z,98078.17
2023-08-15T20:52:40.560Z,98086.89
2023-08-15T20:55:12.544Z,98088.92
2023-08-15T20:57:43.179Z,98087.77
2023-08-15T21:00:13.633Z,98088.19
2023-08-15T21:02:41.971Z,98093.60
2023-08-15T21:05:11.029Z,98089.44
2023-08-15T21:07:40.271Z,98091.48
2023-08-15T21:10:08.849Z,98093.92
2023-08-15T21:12:37.184Z,98090.85
2023-08-15T21:15:06.087Z,98084.40
2023-08-15T21:17:34.354Z,98084.73
2023-08-15T21:20:02.437Z,98087.00
2023-08-15T21:22:31.478Z,98088.42
2023-08-15T21:24:59.582Z,98088.40
2023-08-15T21:27:31.045Z,98087.83
2023-08-15T21:29:59.278Z,98086.84
2023-08-15T21:32:28.408Z,98089.30
2023-08-15T21:34:56.645Z,98090.73
2023-08-15T21:37:25.947Z,98087.33
2023-08-15T21:39:54.077Z,98087.21
2023-08-15T21:42:22.123Z,98084.51
2023-08-15T21:44:50.369Z,98082.50
2023-08-15T21:47:18.602Z,98083.05
2023-08-15T21:49:46.965Z,98081.17
2023-08-15T21:52:15.153Z,98082.29
2023-08-15T21:54:43.560Z,98086.21
2023-08-15T21:57:11.640Z,98083.55
2023-08-15T21:59:39.746Z,98084.94
2023-08-15T22:02:09.209Z,98083.79
2023-08-15T22:04:37.484Z,98090.66
2023-08-15T22:07:05.595Z,98088.90
2023-08-15T22:09:33.999Z,98091.20
2023-08-15T22:12:02.046Z,98086.27
2023-08-15T22:14:30.634Z,98086.38
2023-08-15T22:16:58.816Z,98083.18
2023-08-15T22:19:27.012Z,98078.40
2023-08-15T22:21:55.625Z,98076.00
2023-08-15T22:24:24.924Z,98075.88
2023-08-15T22:26:53.181Z,98074.26
2023-08-15T22:29:21.280Z,98074.21
2023-08-15T22:31:49.487Z,98074.40
2023-08-15T22:34:18.465Z,98077.06
2023-08-15T22:36:48.633Z,98075.27
2023-08-15T22:39:17.246Z,98076.20
2023-08-15T22:41:45.368Z,98074.21
2023-08-15T22:44:13.369Z,98070.20
2023-08-15T22:46:41.556Z,98072.76
2023-08-15T22:49:10.099Z,98072.87
2023-08-15T22:51:38.189Z,98068.16
2023-08-15T22:54:06.723Z,98069.25
2023-08-15T22:56:35.754Z,98070.06
2023-08-15T22:59:04.365Z,98070.07
2023-08-15T23:01:32.564Z,98067.73
2023-08-15T23:04:00.766Z,98073.91
2023-08-15T23:06:29.867Z,98073.42
2023-08-15T23:08:57.845Z,98075.99
2023-08-15T23:11:28.999Z,98076.64
2023-08-15T23:13:57.290Z,98076.02
2023-08-15T23:16:25.328Z,98078.02
2023-08-15T23:18:53.333Z,98080.14
2023-08-15T23:21:21.404Z,98078.02
2023-08-15T23:23:50.210Z,98075.73
2023-08-15T23:26:18.296Z,98073.60
2023-08-15T23:28:46.250Z,98072.70
2023-08-15T23:31:14.473Z,98071.66
2023-08-15T23:33:45.258Z,98070.34
2023-08-15T23:36:14.420Z,98067.64
2023-08-15T23:38:42.583Z,98072.13
2023-08-15T23:41:10.615Z,98069.09
2023-08-15T23:43:38.921Z,98062.71
2023-08-15T23:46:06.969Z,98063.13
2023-08-15T23:48:35.038Z,98069.98
2023-08-15T23:51:03.102Z,98068.58
2023-08-15T23:53:31.257Z,98061.09
2023-08-15T23:55:59.352Z,98055.73
2023-08-15T23:58:27.934Z,98055.39
